createdAt,value
2018-12-27T00:00:43.915Z,5.70
2018-12-27T00:03:12.891Z,5.60
2018-12-27T00:05:42.044Z,5.60
2018-12-27T00:08:10.869Z,5.60
2018-12-27T00:10:39.694Z,5.50
2018-12-27T00:13:08.653Z,5.50
2018-12-27T00:15:37.671Z,5.60
2018-12-27T00:18:06.590Z,5.50
2018-12-27T00:20:44.743Z,5.60
2018-12-27T00:23:13.606Z,5.50
2018-12-27T00:25:42.516Z,5.50
2018-12-27T00:28:11.308Z,5.50
2018-12-27T00:30:40.368Z,5.50
2018-12-27T00:33:09.490Z,5.60
2018-12-27T00:35:38.709Z,5.60
2018-12-27T00:38:07.783Z,5.60
2018-12-27T00:40:36.675Z,5.60
2018-12-27T00:43:06.160Z,5.50
2018-12-27T00:45:35.127Z,5.50
2018-12-27T00:48:04.616Z,5.50
2018-12-27T00:50:33.568Z,5.50
2018-12-27T00:53:02.883Z,5.50
2018-12-27T00:55:32.948Z,5.50
2018-12-27T00:58:01.923Z,5.50
2018-12-27T01:00:30.952Z,5.50
2018-12-27T01:03:00.290Z,5.50
2018-12-27T01:05:29.304Z,5.60
2018-12-27T01:07:58.236Z,5.50
2018-12-27T01:10:27.361Z,5.50
2018-12-27T01:12:56.663Z,5.60
2018-12-27T01:15:28.528Z,5.60
2018-12-27T01:17:57.552Z,5.60
2018-12-27T01:20:26.723Z,5.60
2018-12-27T01:22:55.664Z,5.60
2018-12-27T01:25:24.880Z,5.70
2018-12-27T01:27:53.956Z,5.80
2018-12-27T01:30:22.918Z,5.80
2018-12-27T01:32:52.199Z,5.80
2018-12-27T01:35:21.336Z,5.80
2018-12-27T01:37:51.407Z,5.80
2018-12-27T01:40:20.479Z,5.80
2018-12-27T01:42:49.639Z,5.80
2018-12-27T01:45:18.791Z,5.80
2018-12-27T01:47:47.762Z,5.90
2018-12-27T01:50:16.720Z,5.90
2018-12-27T01:52:45.977Z,5.90
2018-12-27T01:55:14.982Z,5.90
2018-12-27T01:57:44.030Z,6.00
2018-12-27T02:00:13.908Z,6.00
2018-12-27T02:02:43.008Z,6.10
2018-12-27T02:05:12.100Z,6.00
2018-12-27T02:07:41.015Z,6.00
2018-12-27T02:10:10.143Z,6.00
2018-12-27T02:12:39.184Z,6.00
2018-12-27T02:15:08.167Z,6.10
2018-12-27T02:17:37.072Z,6.10
2018-12-27T02:20:06.303Z,6.10
2018-12-27T02:22:35.564Z,6.10
2018-12-27T02:25:04.607Z,6.00
2018-12-27T02:27:34.224Z,6.00
2018-12-27T02:30:03.470Z,6.00
2018-12-27T02:32:32.651Z,5.90
2018-12-27T02:35:01.989Z,5.90
2018-12-27T02:37:30.981Z,5.90
2018-12-27T02:40:00.098Z,5.90
2018-12-27T02:42:29.143Z,5.90
2018-12-27T02:44:58.267Z,5.90
2018-12-27T02:47:27.248Z,6.00
2018-12-27T02:49:56.197Z,6.00
2018-12-27T02:52:25.603Z,6.00
2018-12-27T02:54:54.529Z,6.00
2018-12-27T02:57:23.772Z,6.00
2018-12-27T02:59:52.767Z,6.00
2018-12-27T03:02:21.778Z,6.00
2018-12-27T03:04:50.834Z,6.10
2018-12-27T03:07:20.083Z,6.10
2018-12-27T03:09:49.351Z,6.10
2018-12-27T03:12:18.306Z,6.00
2018-12-27T03:14:47.425Z,6.10
2018-12-27T03:17:16.688Z,6.10
2018-12-27T03:19:45.767Z,6.10
2018-12-27T03:22:14.711Z,6.10
2018-12-27T03:24:43.787Z,6.10
2018-12-27T03:27:13.167Z,6.10
2018-12-27T03:29:42.418Z,6.10
2018-12-27T03:32:11.393Z,6.10
2018-12-27T03:34:40.470Z,6.00
2018-12-27T03:37:09.742Z,6.00
2018-12-27T03:39:38.797Z,6.00
2018-12-27T03:42:08.043Z,6.10
2018-12-27T03:44:37.098Z,6.20
2018-12-27T03:47:06.535Z,6.20
2018-12-27T03:49:35.492Z,6.20
2018-12-27T03:52:04.676Z,6.20
2018-12-27T03:54:34.060Z,6.20
2018-12-27T03:57:03.091Z,6.20
2018-12-27T03:59:33.188Z,6.10
2018-12-27T04:02:02.127Z,6.10
2018-12-27T04:04:31.089Z,6.10
2018-12-27T04:07:00.109Z,6.10
2018-12-27T04:09:29.859Z,6.00
2018-12-27T04:11:58.900Z,6.00
2018-12-27T04:14:28.236Z,6.10
2018-12-27T04:16:57.284Z,6.10
2018-12-27T04:19:26.130Z,6.10
2018-12-27T04:21:55.084Z,6.20
2018-12-27T04:24:24.731Z,6.30
2018-12-27T04:26:53.668Z,6.30
2018-12-27T04:29:22.399Z,6.40
2018-12-27T04:31:52.985Z,6.40
2018-12-27T04:34:22.950Z,6.40
2018-12-27T04:36:52.809Z,6.50
2018-12-27T04:39:22.090Z,6.50
2018-12-27T04:41:51.590Z,6.50
2018-12-27T04:44:21.037Z,6.40
2018-12-27T04:46:49.975Z,6.50
2018-12-27T04:49:18.903Z,6.40
2018-12-27T04:51:47.651Z,6.60
2018-12-27T04:54:16.528Z,6.60
2018-12-27T04:56:45.490Z,6.60
2018-12-27T04:59:15.032Z,6.50
2018-12-27T05:01:44.288Z,6.60
2018-12-27T05:04:18.033Z,7.00
2018-12-27T05:06:45.450Z,7.30
2018-12-27T05:09:14.556Z,7.50
2018-12-27T05:11:43.710Z,7.30
2018-12-27T05:14:12.454Z,7.10
2018-12-27T05:16:42.667Z,7.10
2018-12-27T05:19:11.468Z,7.30
2018-12-27T05:21:40.322Z,7.30
2018-12-27T05:24:09.336Z,6.90
2018-12-27T05:26:38.290Z,7.10
2018-12-27T05:29:07.035Z,7.20
2018-12-27T05:31:36.255Z,7.30
2018-12-27T05:34:05.116Z,7.50
2018-12-27T05:36:36.053Z,7.70
2018-12-27T05:39:06.557Z,7.60
2018-12-27T05:41:35.479Z,7.20
2018-12-27T05:44:04.304Z,7.00
2018-12-27T05:46:33.250Z,6.80
2018-12-27T05:49:02.068Z,6.70
2018-12-27T05:51:31.437Z,6.60
2018-12-27T05:54:00.287Z,6.50
2018-12-27T05:56:29.312Z,6.50
2018-12-27T05:58:58.105Z,6.50
2018-12-27T06:01:27.066Z,6.60
2018-12-27T06:03:56.019Z,6.50
2018-12-27T06:06:25.169Z,6.60
2018-12-27T06:08:54.051Z,6.60
2018-12-27T06:11:23.222Z,6.60
2018-12-27T06:13:52.235Z,6.50
2018-12-27T06:16:20.999Z,6.50
2018-12-27T06:18:49.771Z,6.40
2018-12-27T06:21:18.842Z,6.40
2018-12-27T06:23:47.694Z,6.40
2018-12-27T06:26:16.850Z,6.40
2018-12-27T06:28:45.938Z,6.40
2018-12-27T06:31:14.788Z,6.40
2018-12-27T06:33:43.770Z,6.40
2018-12-27T06:36:12.568Z,6.30
2018-12-27T06:38:41.486Z,6.30
2018-12-27T06:41:10.316Z,6.40
2018-12-27T06:43:39.277Z,6.40
2018-12-27T06:46:08.229Z,6.50
2018-12-27T06:48:37.050Z,6.40
2018-12-27T06:51:05.807Z,6.40
2018-12-27T06:53:34.963Z,6.30
2018-12-27T06:56:03.894Z,6.40
2018-12-27T06:58:37.699Z,6.40
2018-12-27T07:01:03.161Z,6.50
2018-12-27T07:03:32.148Z,6.60
2018-12-27T07:06:01.001Z,6.60
2018-12-27T07:08:30.039Z,6.60
2018-12-27T07:10:58.889Z,6.50
2018-12-27T07:13:27.800Z,6.40
2018-12-27T07:15:56.604Z,6.40
2018-12-27T07:18:25.365Z,6.50
2018-12-27T07:20:54.178Z,6.40
2018-12-27T07:23:23.038Z,6.40
2018-12-27T07:25:51.828Z,6.30
2018-12-27T07:28:20.823Z,6.30
2018-12-27T07:30:49.823Z,6.20
2018-12-27T07:33:18.575Z,6.30
2018-12-27T07:35:47.598Z,6.30
2018-12-27T07:38:16.475Z,6.20
2018-12-27T07:40:45.685Z,6.20
2018-12-27T07:43:14.624Z,6.20
2018-12-27T07:45:43.511Z,6.30
2018-12-27T07:48:12.532Z,6.30
2018-12-27T07:50:41.567Z,6.30
2018-12-27T07:53:10.595Z,6.40
2018-12-27T07:55:39.429Z,6.30
2018-12-27T07:58:08.130Z,6.30
2018-12-27T08:00:36.982Z,6.30
2018-12-27T08:03:05.809Z,6.40
2018-12-27T08:05:34.963Z,6.40
2018-12-27T08:08:04.823Z,6.40
2018-12-27T08:10:33.579Z,6.50
2018-12-27T08:13:02.531Z,6.60
2018-12-27T08:15:31.301Z,6.60
2018-12-27T08:18:00.740Z,6.70
2018-12-27T08:20:29.684Z,6.80
2018-12-27T08:22:58.505Z,7.00
2018-12-27T08:25:27.323Z,7.00
2018-12-27T08:27:57.393Z,7.00
2018-12-27T08:30:26.276Z,7.10
2018-12-27T08:32:55.039Z,7.30
2018-12-27T08:35:23.899Z,7.50
2018-12-27T08:37:53.028Z,7.70
2018-12-27T08:40:21.855Z,7.70
2018-12-27T08:42:50.713Z,7.80
2018-12-27T08:45:19.946Z,7.80
2018-12-27T08:47:48.748Z,7.70
2018-12-27T08:50:17.796Z,7.90
2018-12-27T08:52:46.955Z,7.90
2018-12-27T08:55:15.967Z,7.90
2018-12-27T08:57:44.859Z,8.00
2018-12-27T09:00:13.678Z,8.00
2018-12-27T09:02:42.655Z,7.90
2018-12-27T09:05:18.701Z,8.00
2018-12-27T09:07:42.583Z,8.00
2018-12-27T09:10:11.715Z,8.10
2018-12-27T09:12:40.471Z,8.10
2018-12-27T09:15:09.656Z,8.10
2018-12-27T09:17:38.475Z,8.10
2018-12-27T09:20:08.150Z,8.20
2018-12-27T09:22:37.593Z,8.30
2018-12-27T09:25:06.569Z,8.30
2018-12-27T09:27:35.464Z,8.20
2018-12-27T09:30:04.595Z,8.20
2018-12-27T09:32:33.447Z,8.20
2018-12-27T09:35:02.466Z,8.20
2018-12-27T09:37:31.213Z,8.20
2018-12-27T09:40:00.206Z,8.10
2018-12-27T09:42:29.040Z,8.10
2018-12-27T09:44:57.929Z,8.10
2018-12-27T09:47:26.695Z,8.10
2018-12-27T09:49:55.508Z,8.00
2018-12-27T09:52:25.259Z,8.10
2018-12-27T09:54:54.479Z,8.10
2018-12-27T09:57:23.791Z,8.20
2018-12-27T09:59:54.027Z,8.20
2018-12-27T10:02:23.114Z,8.20
2018-12-27T10:04:52.684Z,8.20
2018-12-27T10:07:21.510Z,8.30
2018-12-27T10:09:50.366Z,8.40
2018-12-27T10:12:19.207Z,8.50
2018-12-27T10:14:47.995Z,8.40
2018-12-27T10:17:16.796Z,8.40
2018-12-27T10:19:46.001Z,8.40
2018-12-27T10:22:14.848Z,8.40
2018-12-27T10:24:44.354Z,8.30
2018-12-27T10:27:19.317Z,8.30
2018-12-27T10:29:48.233Z,8.40
2018-12-27T10:32:17.517Z,8.40
2018-12-27T10:34:47.012Z,8.50
2018-12-27T10:37:17.912Z,8.50
2018-12-27T10:39:46.772Z,8.60
2018-12-27T10:42:15.535Z,8.70
2018-12-27T10:44:44.633Z,8.80
2018-12-27T10:47:13.679Z,8.80
2018-12-27T10:49:42.728Z,9.10
2018-12-27T10:52:11.814Z,9.30
2018-12-27T10:54:41.025Z,9.40
2018-12-27T10:57:10.339Z,9.30
2018-12-27T10:59:39.050Z,9.50
2018-12-27T11:02:07.910Z,11.20
2018-12-27T11:04:36.855Z,12.30
2018-12-27T11:07:06.544Z,13.10
2018-12-27T11:09:35.463Z,13.50
2018-12-27T11:12:04.524Z,14.30
2018-12-27T11:14:33.793Z,14.60
2018-12-27T11:17:02.705Z,14.60
2018-12-27T11:19:31.707Z,14.60
2018-12-27T11:22:00.787Z,15.20
2018-12-27T11:24:29.548Z,15.10
2018-12-27T11:26:58.819Z,15.00
2018-12-27T11:29:27.670Z,14.50
2018-12-27T11:31:56.529Z,14.50
2018-12-27T11:34:25.738Z,14.60
2018-12-27T11:36:55.223Z,15.00
2018-12-27T11:39:24.028Z,14.80
2018-12-27T11:41:58.008Z,14.90
2018-12-27T11:44:27.004Z,14.70
2018-12-27T11:46:56.272Z,14.80
2018-12-27T11:49:25.361Z,14.50
2018-12-27T11:51:54.677Z,15.00
2018-12-27T11:54:23.919Z,15.30
2018-12-27T11:56:54.016Z,16.10
2018-12-27T11:59:23.147Z,16.00
2018-12-27T12:01:52.148Z,15.10
2018-12-27T12:04:21.631Z,14.70
2018-12-27T12:06:51.224Z,14.60
2018-12-27T12:09:20.360Z,15.30
2018-12-27T12:11:49.390Z,15.30
2018-12-27T12:14:18.646Z,15.70
2018-12-27T12:16:47.487Z,15.60
2018-12-27T12:19:16.658Z,14.80
2018-12-27T12:21:45.965Z,14.50
2018-12-27T12:24:15.119Z,14.50
2018-12-27T12:26:44.190Z,14.50
2018-12-27T12:29:13.023Z,15.10
2018-12-27T12:31:42.595Z,14.00
2018-12-27T12:34:11.563Z,13.40
2018-12-27T12:36:41.202Z,13.40
2018-12-27T12:39:10.392Z,13.80
2018-12-27T12:41:39.458Z,14.10
2018-12-27T12:44:08.278Z,13.30
2018-12-27T12:46:37.134Z,14.50
2018-12-27T12:49:06.564Z,14.50
2018-12-27T12:51:35.545Z,14.20
2018-12-27T12:54:04.413Z,14.30
2018-12-27T12:56:33.446Z,14.70
2018-12-27T12:59:02.359Z,14.80
2018-12-27T13:01:31.267Z,15.10
2018-12-27T13:04:00.168Z,15.20
2018-12-27T13:06:28.909Z,14.80
2018-12-27T13:08:57.957Z,14.10
2018-12-27T13:11:27.134Z,13.40
2018-12-27T13:13:56.081Z,12.30
2018-12-27T13:16:25.206Z,12.00
2018-12-27T13:18:54.372Z,11.60
2018-12-27T13:21:23.228Z,11.00
2018-12-27T13:23:52.464Z,10.60
2018-12-27T13:26:23.642Z,10.70
2018-12-27T13:28:52.463Z,10.50
2018-12-27T13:31:21.446Z,10.10
2018-12-27T13:33:50.253Z,9.70
2018-12-27T13:36:25.194Z,9.40
2018-12-27T13:38:50.111Z,9.30
2018-12-27T13:41:18.902Z,9.10
2018-12-27T13:43:47.758Z,9.00
2018-12-27T13:46:17.135Z,8.90
2018-12-27T13:48:46.396Z,8.80
2018-12-27T13:51:15.800Z,8.70
2018-12-27T13:53:45.777Z,8.60
2018-12-27T13:56:15.032Z,8.70
2018-12-27T13:58:45.396Z,8.70
2018-12-27T14:01:14.485Z,8.60
2018-12-27T14:03:46.677Z,8.50
2018-12-27T14:06:15.711Z,8.50
2018-12-27T14:08:44.829Z,8.40
2018-12-27T14:11:14.296Z,8.40
2018-12-27T14:13:45.233Z,8.30
2018-12-27T14:16:14.438Z,8.30
2018-12-27T14:18:43.556Z,8.20
2018-12-27T14:21:12.553Z,8.20
2018-12-27T14:23:41.861Z,8.00
2018-12-27T14:26:11.122Z,8.00
2018-12-27T14:28:40.156Z,8.00
2018-12-27T14:31:09.073Z,7.90
2018-12-27T14:33:38.326Z,7.80
2018-12-27T14:36:07.432Z,7.70
2018-12-27T14:38:36.578Z,7.60
2018-12-27T14:41:05.887Z,7.50
2018-12-27T14:43:34.999Z,7.50
2018-12-27T14:46:05.062Z,7.40
2018-12-27T14:48:34.138Z,7.40
2018-12-27T14:51:03.506Z,7.30
2018-12-27T14:53:32.760Z,7.20
2018-12-27T14:56:02.636Z,7.20
2018-12-27T14:58:31.786Z,7.10
2018-12-27T15:01:00.824Z,7.00
2018-12-27T15:03:30.133Z,7.00
2018-12-27T15:05:58.987Z,6.90
2018-12-27T15:08:27.903Z,6.80
2018-12-27T15:10:56.922Z,6.80
2018-12-27T15:13:25.875Z,6.90
2018-12-27T15:15:56.221Z,6.90
2018-12-27T15:18:25.620Z,6.90
2018-12-27T15:20:54.915Z,6.90
2018-12-27T15:23:24.076Z,6.80
2018-12-27T15:25:53.007Z,6.70
2018-12-27T15:28:21.987Z,6.70
2018-12-27T15:30:51.018Z,6.70
2018-12-27T15:33:20.071Z,6.70
2018-12-27T15:35:49.071Z,6.70
2018-12-27T15:38:18.283Z,6.60
2018-12-27T15:40:47.279Z,6.60
2018-12-27T15:43:16.287Z,6.50
2018-12-27T15:45:45.302Z,6.50
2018-12-27T15:48:26.252Z,6.50
2018-12-27T15:50:56.256Z,6.50
2018-12-27T15:53:25.275Z,6.40
2018-12-27T15:55:54.237Z,6.40
2018-12-27T15:58:23.063Z,6.40
2018-12-27T16:00:52.035Z,6.40
2018-12-27T16:03:20.875Z,6.40
2018-12-27T16:05:49.682Z,6.40
2018-12-27T16:08:18.570Z,6.40
2018-12-27T16:10:47.434Z,6.40
2018-12-27T16:13:16.283Z,6.40
2018-12-27T16:15:46.286Z,6.40
2018-12-27T16:18:15.400Z,6.40
2018-12-27T16:20:44.683Z,6.80
2018-12-27T16:23:14.048Z,7.10
2018-12-27T16:25:43.087Z,7.30
2018-12-27T16:28:12.514Z,7.40
2018-12-27T16:30:41.927Z,7.40
2018-12-27T16:33:10.876Z,7.40
2018-12-27T16:35:39.714Z,7.40
2018-12-27T16:38:08.667Z,7.00
2018-12-27T16:40:37.782Z,6.70
2018-12-27T16:43:06.622Z,6.50
2018-12-27T16:45:35.960Z,6.40
2018-12-27T16:48:04.782Z,6.30
2018-12-27T16:50:33.850Z,6.20
2018-12-27T16:53:02.781Z,6.20
2018-12-27T16:55:32.029Z,6.10
2018-12-27T16:58:01.468Z,6.00
2018-12-27T17:00:31.184Z,6.00
2018-12-27T17:03:01.058Z,6.00
2018-12-27T17:05:29.889Z,5.90
2018-12-27T17:07:58.995Z,5.90
2018-12-27T17:10:28.482Z,5.90
2018-12-27T17:12:57.488Z,6.00
2018-12-27T17:15:27.075Z,6.00
2018-12-27T17:17:55.928Z,5.90
2018-12-27T17:20:25.275Z,5.90
2018-12-27T17:22:54.190Z,5.90
2018-12-27T17:25:23.152Z,6.00
2018-12-27T17:27:52.594Z,6.00
2018-12-27T17:30:22.682Z,5.90
2018-12-27T17:32:51.935Z,5.90
2018-12-27T17:35:21.005Z,5.90
2018-12-27T17:37:49.999Z,5.90
2018-12-27T17:42:42.952Z,6.00
2018-12-27T17:45:12.063Z,6.00
2018-12-27T17:47:41.176Z,6.00
2018-12-27T17:50:12.223Z,6.10
2018-12-27T17:52:41.295Z,6.00
2018-12-27T17:55:11.175Z,6.10
2018-12-27T17:57:40.362Z,6.10
2018-12-27T18:00:09.627Z,6.10
2018-12-27T18:02:39.271Z,6.10
2018-12-27T18:07:44.087Z,6.20
2018-12-27T18:10:13.372Z,6.40
2018-12-27T18:12:43.976Z,6.40
2018-12-27T18:15:13.658Z,6.50
2018-12-27T18:17:43.147Z,6.50
2018-12-27T18:20:12.472Z,6.60
2018-12-27T18:22:41.753Z,6.50
2018-12-27T18:25:11.362Z,6.50
2018-12-27T18:27:40.561Z,6.40
2018-12-27T18:30:10.395Z,6.40
2018-12-27T18:32:40.385Z,6.50
2018-12-27T18:35:09.745Z,6.40
2018-12-27T18:37:39.996Z,6.40
2018-12-27T18:40:09.246Z,6.40
2018-12-27T18:42:38.683Z,6.40
2018-12-27T18:45:08.703Z,6.40
2018-12-27T18:47:37.826Z,6.50
2018-12-27T18:50:07.297Z,6.40
2018-12-27T18:52:36.423Z,6.40
2018-12-27T18:55:05.733Z,6.40
2018-12-27T18:57:34.812Z,6.40
2018-12-27T19:00:04.476Z,6.30
2018-12-27T19:02:34.503Z,6.30
2018-12-27T19:05:03.726Z,6.30
2018-12-27T19:07:33.286Z,6.30
2018-12-27T19:10:02.881Z,6.20
2018-12-27T19:13:21.110Z,6.10
2018-12-27T19:15:56.494Z,6.20
2018-12-27T19:18:34.382Z,6.40
2018-12-27T19:21:24.892Z,6.40
2018-12-27T19:23:54.098Z,6.50
2018-12-27T19:26:23.081Z,6.40
2018-12-27T19:28:51.951Z,6.40
2018-12-27T19:31:21.061Z,6.50
2018-12-27T19:33:50.211Z,6.40
2018-12-27T19:36:19.483Z,6.40
2018-12-27T19:38:49.163Z,6.30
2018-12-27T19:41:18.830Z,6.50
2018-12-27T19:43:47.790Z,6.40
2018-12-27T19:46:17.069Z,6.40
2018-12-27T19:48:46.368Z,6.20
2018-12-27T19:51:15.298Z,6.20
2018-12-27T19:53:44.334Z,6.10
2018-12-27T19:56:13.480Z,6.10
2018-12-27T19:58:42.640Z,6.10
2018-12-27T20:01:11.507Z,6.10
2018-12-27T20:03:41.298Z,6.00
2018-12-27T20:06:10.564Z,6.00
2018-12-27T20:08:39.737Z,6.10
2018-12-27T20:11:08.683Z,6.00
2018-12-27T20:13:37.827Z,6.00
2018-12-27T20:16:07.461Z,6.00
2018-12-27T20:18:36.264Z,6.00
2018-12-27T20:21:05.135Z,6.10
2018-12-27T20:23:34.008Z,6.10
2018-12-27T20:26:02.789Z,6.10
2018-12-27T20:28:32.733Z,6.10
2018-12-27T20:31:01.731Z,6.00
2018-12-27T20:33:31.008Z,6.00
2018-12-27T20:36:00.256Z,6.00
2018-12-27T20:38:29.193Z,6.00
2018-12-27T20:40:58.214Z,6.10
2018-12-27T20:43:27.095Z,6.10
2018-12-27T20:45:56.086Z,6.10
2018-12-27T20:48:25.283Z,6.10
2018-12-27T20:50:54.484Z,6.10
2018-12-27T20:53:23.938Z,6.00
2018-12-27T20:55:53.468Z,6.00
2018-12-27T20:58:23.168Z,6.00
2018-12-27T21:00:52.311Z,6.00
2018-12-27T21:03:21.872Z,6.10
2018-12-27T21:05:51.442Z,6.10
2018-12-27T21:08:21.826Z,6.10
2018-12-27T21:10:53.530Z,6.00
2018-12-27T21:13:23.974Z,6.00
2018-12-27T21:15:53.434Z,6.00
2018-12-27T21:18:22.681Z,5.90
2018-12-27T21:20:53.114Z,5.90
2018-12-27T21:23:22.783Z,5.90
2018-12-27T21:25:54.396Z,5.90
2018-12-27T21:28:24.696Z,5.90
2018-12-27T21:30:53.955Z,5.90
2018-12-27T21:33:22.987Z,5.90
2018-12-27T21:35:52.542Z,5.90
2018-12-27T21:38:21.866Z,6.00
2018-12-27T21:40:51.729Z,6.00
2018-12-27T21:43:21.023Z,6.00
2018-12-27T21:45:50.506Z,6.00
2018-12-27T21:48:22.959Z,6.00
2018-12-27T21:50:52.403Z,6.00
2018-12-27T21:53:21.630Z,6.00
2018-12-27T21:55:50.757Z,6.00
2018-12-27T21:58:24.436Z,5.90
2018-12-27T22:00:53.761Z,5.90
2018-12-27T22:03:23.245Z,5.90
2018-12-27T22:05:52.326Z,5.90
2018-12-27T22:08:28.617Z,6.00
2018-12-27T22:11:00.530Z,5.90
2018-12-27T22:13:29.742Z,5.90
2018-12-27T22:15:58.964Z,6.00
2018-12-27T22:18:32.338Z,6.10
2018-12-27T22:21:01.090Z,6.10
2018-12-27T22:23:30.407Z,6.20
2018-12-27T22:26:00.187Z,6.20
2018-12-27T22:28:29.112Z,6.20
2018-12-27T22:30:58.048Z,6.20
2018-12-27T22:33:27.161Z,6.20
2018-12-27T22:35:55.947Z,6.10
2018-12-27T22:38:24.927Z,6.10
2018-12-27T22:40:53.952Z,6.10
2018-12-27T22:43:23.027Z,6.10
2018-12-27T22:45:51.786Z,6.10
2018-12-27T22:48:20.968Z,6.00
2018-12-27T22:50:50.003Z,6.00
2018-12-27T22:53:18.770Z,6.10
2018-12-27T22:55:57.308Z,6.10
2018-12-27T22:58:26.116Z,6.20
2018-12-27T23:00:56.265Z,6.20
2018-12-27T23:03:25.393Z,6.20
2018-12-27T23:05:54.402Z,6.20
2018-12-27T23:08:43.451Z,6.20
2018-12-27T23:11:12.368Z,6.20
2018-12-27T23:13:41.359Z,6.20
2018-12-27T23:16:10.220Z,6.20
2018-12-27T23:18:38.984Z,6.20
2018-12-27T23:21:07.929Z,6.20
2018-12-27T23:23:37.056Z,6.30
2018-12-27T23:26:06.323Z,6.30
2018-12-27T23:28:35.087Z,6.30
2018-12-27T23:31:04.235Z,6.30
2018-12-27T23:33:33.119Z,6.30
2018-12-27T23:36:02.095Z,6.40
2018-12-27T23:38:31.162Z,6.40
2018-12-27T23:41:00.210Z,6.40
2018-12-27T23:43:29.284Z,6.50
2018-12-27T23:45:58.219Z,6.40
2018-12-27T23:48:27.487Z,6.50
2018-12-27T23:50:56.727Z,6.50
2018-12-27T23:53:25.594Z,6.50
2018-12-27T23:55:54.446Z,6.50
2018-12-27T23:58:23.529Z,6.60
